sensor_id;sensor_type;location;lat;lon;timestamp;pressure;altitude;pressure_sealevel;temperature;humidity
59877;BME280;45749;51.140;17.184;2023-07-08T00:00:18;100700.09;;;17.06;72.10
59877;BME280;45749;51.140;17.184;2023-07-08T00:02:44;100699.84;;;17.00;72.23
59877;BME280;45749;51.140;17.184;2023-07-08T00:05:13;100706.72;;;17.02;71.98
59877;BME280;45749;51.140;17.184;2023-07-08T00:07:39;100706.84;;;17.01;72.57
59877;BME280;45749;51.140;17.184;2023-07-08T00:10:12;100708.97;;;16.97;72.57
59877;BME280;45749;51.140;17.184;2023-07-08T00:12:37;100706.44;;;16.96;72.39
59877;BME280;45749;51.140;17.184;2023-07-08T00:15:03;100701.25;;;16.94;72.26
59877;BME280;45749;51.140;17.184;2023-07-08T00:17:30;100705.19;;;17.00;72.34
59877;BME280;45749;51.140;17.184;2023-07-08T00:19:55;100700.97;;;16.97;72.73
59877;BME280;45749;51.140;17.184;2023-07-08T00:22:21;100694.69;;;16.88;72.79
59877;BME280;45749;51.140;17.184;2023-07-08T00:24:47;100688.09;;;16.83;72.73
59877;BME280;45749;51.140;17.184;2023-07-08T00:27:13;100695.66;;;16.78;73.36
59877;BME280;45749;51.140;17.184;2023-07-08T00:29:39;100703.53;;;16.79;73.26
59877;BME280;45749;51.140;17.184;2023-07-08T00:32:22;100695.94;;;16.75;72.74
59877;BME280;45749;51.140;17.184;2023-07-08T00:34:47;100699.47;;;16.75;72.99
59877;BME280;45749;51.140;17.184;2023-07-08T00:37:13;100705.34;;;16.69;73.45
59877;BME280;45749;51.140;17.184;2023-07-08T00:39:39;100704.91;;;16.64;73.50
59877;BME280;45749;51.140;17.184;2023-07-08T00:42:24;100704.34;;;16.60;73.49
59877;BME280;45749;51.140;17.184;2023-07-08T00:44:49;100705.47;;;16.58;73.35
59877;BME280;45749;51.140;17.184;2023-07-08T00:47:15;100697.19;;;16.51;73.29
59877;BME280;45749;51.140;17.184;2023-07-08T00:49:54;100699.75;;;16.53;73.64
59877;BME280;45749;51.140;17.184;2023-07-08T00:52:28;100694.25;;;16.54;73.52
59877;BME280;45749;51.140;17.184;2023-07-08T00:54:59;100699.59;;;16.54;73.38
59877;BME280;45749;51.140;17.184;2023-07-08T00:57:30;100690.19;;;16.50;72.85
59877;BME280;45749;51.140;17.184;2023-07-08T01:00:01;100690.47;;;16.57;72.99
59877;BME280;45749;51.140;17.184;2023-07-08T01:02:29;100688.09;;;16.54;73.66
59877;BME280;45749;51.140;17.184;2023-07-08T01:05:17;100690.19;;;16.50;73.88
59877;BME280;45749;51.140;17.184;2023-07-08T01:07:45;100690.34;;;16.49;73.57
59877;BME280;45749;51.140;17.184;2023-07-08T01:10:24;100691.03;;;16.51;73.65
59877;BME280;45749;51.140;17.184;2023-07-08T01:12:55;100681.94;;;16.44;73.94
59877;BME280;45749;51.140;17.184;2023-07-08T01:15:27;100694.69;;;16.40;74.08
59877;BME280;45749;51.140;17.184;2023-07-08T01:17:55;100687.41;;;16.32;74.54
59877;BME280;45749;51.140;17.184;2023-07-08T01:20:20;100673.53;;;16.19;74.75
59877;BME280;45749;51.140;17.184;2023-07-08T01:22:45;100681.22;;;16.22;75.16
59877;BME280;45749;51.140;17.184;2023-07-08T01:25:12;100675.47;;;16.17;74.90
59877;BME280;45749;51.140;17.184;2023-07-08T01:27:42;100679.13;;;16.16;74.56
59877;BME280;45749;51.140;17.184;2023-07-08T01:30:09;100679.41;;;16.13;75.10
59877;BME280;45749;51.140;17.184;2023-07-08T01:32:37;100675.31;;;16.09;74.99
59877;BME280;45749;51.140;17.184;2023-07-08T01:35:04;100682.19;;;16.02;75.10
59877;BME280;45749;51.140;17.184;2023-07-08T01:37:41;100680.78;;;15.98;75.06
59877;BME280;45749;51.140;17.184;2023-07-08T01:42:44;100675.31;;;15.89;75.01
59877;BME280;45749;51.140;17.184;2023-07-08T01:45:16;100671.94;;;15.87;75.24
59877;BME280;45749;51.140;17.184;2023-07-08T01:47:43;100672.22;;;15.84;75.38
59877;BME280;45749;51.140;17.184;2023-07-08T01:50:10;100670.81;;;15.80;75.68
59877;BME280;45749;51.140;17.184;2023-07-08T01:52:36;100656.66;;;15.70;75.79
59877;BME280;45749;51.140;17.184;2023-07-08T01:55:02;100666.03;;;15.74;75.59
59877;BME280;45749;51.140;17.184;2023-07-08T01:57:28;100669.53;;;15.75;75.46
59877;BME280;45749;51.140;17.184;2023-07-08T01:59:53;100672.06;;;15.76;75.34
59877;BME280;45749;51.140;17.184;2023-07-08T02:02:18;100660.56;;;15.76;75.14
59877;BME280;45749;51.140;17.184;2023-07-08T02:04:44;100653.00;;;15.71;75.27
59877;BME280;45749;51.140;17.184;2023-07-08T02:07:09;100671.63;;;15.71;75.48
59877;BME280;45749;51.140;17.184;2023-07-08T02:09:34;100678.44;;;15.64;75.65
59877;BME280;45749;51.140;17.184;2023-07-08T02:12:00;100670.56;;;15.62;75.48
59877;BME280;45749;51.140;17.184;2023-07-08T02:14:25;100663.28;;;15.55;75.75
59877;BME280;45749;51.140;17.184;2023-07-08T02:16:51;100669.13;;;15.48;75.79
59877;BME280;45749;51.140;17.184;2023-07-08T02:19:17;100661.25;;;15.37;75.74
59877;BME280;45749;51.140;17.184;2023-07-08T02:21:42;100677.53;;;15.44;75.72
59877;BME280;45749;51.140;17.184;2023-07-08T02:24:08;100679.91;;;15.47;75.97
59877;BME280;45749;51.140;17.184;2023-07-08T02:26:33;100679.47;;;15.42;76.06
59877;BME280;45749;51.140;17.184;2023-07-08T02:28:59;100682.97;;;15.42;75.96
59877;BME280;45749;51.140;17.184;2023-07-08T02:31:24;100686.88;;;15.38;76.25
59877;BME280;45749;51.140;17.184;2023-07-08T02:33:50;100680.97;;;15.35;76.41
59877;BME280;45749;51.140;17.184;2023-07-08T02:36:16;100676.75;;;15.32;76.28
59877;BME280;45749;51.140;17.184;2023-07-08T02:38:41;100661.88;;;15.20;76.25
59877;BME280;45749;51.140;17.184;2023-07-08T02:41:06;100658.91;;;15.13;76.20
59877;BME280;45749;51.140;17.184;2023-07-08T02:43:32;100676.88;;;15.21;76.40
59877;BME280;45749;51.140;17.184;2023-07-08T02:45:57;100682.44;;;15.18;76.32
59877;BME280;45749;51.140;17.184;2023-07-08T02:48:22;100674.72;;;15.15;76.50
59877;BME280;45749;51.140;17.184;2023-07-08T02:50:48;100683.81;;;15.12;76.80
59877;BME280;45749;51.140;17.184;2023-07-08T02:53:13;100682.25;;;15.10;76.74
59877;BME280;45749;51.140;17.184;2023-07-08T02:55:39;100684.22;;;15.08;76.69
59877;BME280;45749;51.140;17.184;2023-07-08T02:58:05;100672.53;;;14.99;76.69
59877;BME280;45749;51.140;17.184;2023-07-08T03:00:30;100685.84;;;14.99;76.82
59877;BME280;45749;51.140;17.184;2023-07-08T03:02:55;100678.97;;;14.96;76.96
59877;BME280;45749;51.140;17.184;2023-07-08T03:05:21;100676.72;;;14.92;77.18
59877;BME280;45749;51.140;17.184;2023-07-08T03:07:46;100674.06;;;14.92;76.93
59877;BME280;45749;51.140;17.184;2023-07-08T03:10:11;100672.38;;;14.91;77.04
59877;BME280;45749;51.140;17.184;2023-07-08T03:12:37;100675.88;;;14.91;76.95
59877;BME280;45749;51.140;17.184;2023-07-08T03:15:03;100679.75;;;14.87;76.95
59877;BME280;45749;51.140;17.184;2023-07-08T03:17:28;100675.56;;;14.85;77.05
59877;BME280;45749;51.140;17.184;2023-07-08T03:19:53;100670.03;;;14.76;77.12
59877;BME280;45749;51.140;17.184;2023-07-08T03:22:19;100670.16;;;14.75;77.66
59877;BME280;45749;51.140;17.184;2023-07-08T03:24:44;100675.22;;;14.78;77.39
59877;BME280;45749;51.140;17.184;2023-07-08T03:27:15;100684.16;;;14.77;77.55
59877;BME280;45749;51.140;17.184;2023-07-08T03:29:41;100682.63;;;14.74;77.64
59877;BME280;45749;51.140;17.184;2023-07-08T03:32:10;100686.13;;;14.75;77.63
59877;BME280;45749;51.140;17.184;2023-07-08T03:34:35;100688.03;;;14.73;77.55
59877;BME280;45749;51.140;17.184;2023-07-08T03:37:01;100685.38;;;14.73;77.74
59877;BME280;45749;51.140;17.184;2023-07-08T03:39:26;100685.53;;;14.71;77.92
59877;BME280;45749;51.140;17.184;2023-07-08T03:41:52;100681.88;;;14.72;77.98
59877;BME280;45749;51.140;17.184;2023-07-08T03:44:17;100678.50;;;14.70;78.33
59877;BME280;45749;51.140;17.184;2023-07-08T03:46:48;100678.66;;;14.69;78.49
59877;BME280;45749;51.140;17.184;2023-07-08T03:49:15;100686.63;;;14.69;78.76
59877;BME280;45749;51.140;17.184;2023-07-08T03:51:41;100678.75;;;14.67;78.95
59877;BME280;45749;51.140;17.184;2023-07-08T03:54:10;100680.34;;;14.70;78.85
59877;BME280;45749;51.140;17.184;2023-07-08T03:56:36;100679.38;;;14.71;79.30
59877;BME280;45749;51.140;17.184;2023-07-08T03:59:01;100681.88;;;14.72;79.38
59877;BME280;45749;51.140;17.184;2023-07-08T04:01:27;100676.56;;;14.72;79.47
59877;BME280;45749;51.140;17.184;2023-07-08T04:03:54;100677.41;;;14.73;79.57
59877;BME280;45749;51.140;17.184;2023-07-08T04:06:20;100667.88;;;14.70;79.54
59877;BME280;45749;51.140;17.184;2023-07-08T04:08:46;100665.69;;;14.75;79.73
59877;BME280;45749;51.140;17.184;2023-07-08T04:11:17;100677.47;;;14.83;80.16
59877;BME280;45749;51.140;17.184;2023-07-08T04:13:43;100683.38;;;14.86;80.06
59877;BME280;45749;51.140;17.184;2023-07-08T04:16:15;100678.91;;;14.87;80.44
59877;BME280;45749;51.140;17.184;2023-07-08T04:18:41;100683.13;;;14.89;80.23
59877;BME280;45749;51.140;17.184;2023-07-08T04:21:06;100683.00;;;14.91;80.52
59877;BME280;45749;51.140;17.184;2023-07-08T04:23:32;100674.06;;;14.92;80.66
59877;BME280;45749;51.140;17.184;2023-07-08T04:25:57;100685.00;;;14.98;80.71
59877;BME280;45749;51.140;17.184;2023-07-08T04:28:23;100683.75;;;15.02;80.70
59877;BME280;45749;51.140;17.184;2023-07-08T04:30:48;100679.16;;;15.05;80.42
59877;BME280;45749;51.140;17.184;2023-07-08T04:33:14;100671.34;;;15.13;80.93
59877;BME280;45749;51.140;17.184;2023-07-08T04:35:41;100679.06;;;15.16;80.75
59877;BME280;45749;51.140;17.184;2023-07-08T04:38:14;100674.47;;;15.18;81.00
59877;BME280;45749;51.140;17.184;2023-07-08T04:40:41;100682.19;;;15.21;80.91
59877;BME280;45749;51.140;17.184;2023-07-08T04:43:06;100672.97;;;15.25;80.98
59877;BME280;45749;51.140;17.184;2023-07-08T04:45:32;100679.00;;;15.27;80.71
59877;BME280;45749;51.140;17.184;2023-07-08T04:47:57;100683.06;;;15.31;80.76
59877;BME280;45749;51.140;17.184;2023-07-08T04:50:22;100679.72;;;15.39;80.90
59877;BME280;45749;51.140;17.184;2023-07-08T04:52:48;100667.69;;;15.35;81.20
59877;BME280;45749;51.140;17.184;2023-07-08T04:55:15;100675.56;;;15.46;81.24
59877;BME280;45749;51.140;17.184;2023-07-08T04:57:40;100663.97;;;15.47;81.02
59877;BME280;45749;51.140;17.184;2023-07-08T05:00:06;100666.19;;;15.52;81.22
59877;BME280;45749;51.140;17.184;2023-07-08T05:02:35;100668.06;;;15.61;81.34
59877;BME280;45749;51.140;17.184;2023-07-08T05:05:01;100666.94;;;15.63;81.26
59877;BME280;45749;51.140;17.184;2023-07-08T05:07:27;100669.94;;;15.70;81.25
59877;BME280;45749;51.140;17.184;2023-07-08T05:09:52;100659.16;;;15.71;81.85
59877;BME280;45749;51.140;17.184;2023-07-08T05:12:17;100662.38;;;15.75;81.81
59877;BME280;45749;51.140;17.184;2023-07-08T05:14:43;100662.56;;;15.83;81.63
59877;BME280;45749;51.140;17.184;2023-07-08T05:17:08;100651.47;;;15.78;81.79
59877;BME280;45749;51.140;17.184;2023-07-08T05:19:34;100669.56;;;15.94;81.78
59877;BME280;45749;51.140;17.184;2023-07-08T05:21:59;100660.88;;;15.92;81.91
59877;BME280;45749;51.140;17.184;2023-07-08T05:24:25;100669.59;;;16.04;82.51
59877;BME280;45749;51.140;17.184;2023-07-08T05:26:50;100661.59;;;16.04;83.08
59877;BME280;45749;51.140;17.184;2023-07-08T05:29:15;100663.72;;;16.10;82.51
59877;BME280;45749;51.140;17.184;2023-07-08T05:31:40;100651.34;;;16.09;82.51
59877;BME280;45749;51.140;17.184;2023-07-08T05:34:06;100665.94;;;16.24;82.68
59877;BME280;45749;51.140;17.184;2023-07-08T05:36:31;100669.03;;;16.29;82.83
59877;BME280;45749;51.140;17.184;2023-07-08T05:38:56;100661.47;;;16.34;83.44
59877;BME280;45749;51.140;17.184;2023-07-08T05:41:22;100666.94;;;16.42;83.53
59877;BME280;45749;51.140;17.184;2023-07-08T05:43:47;100659.50;;;16.46;83.49
59877;BME280;45749;51.140;17.184;2023-07-08T05:46:12;100654.03;;;16.48;83.96
59877;BME280;45749;51.140;17.184;2023-07-08T05:48:38;100660.34;;;16.56;84.00
59877;BME280;45749;51.140;17.184;2023-07-08T05:51:03;100666.34;;;16.68;83.62
59877;BME280;45749;51.140;17.184;2023-07-08T05:53:29;100672.94;;;16.74;83.74
59877;BME280;45749;51.140;17.184;2023-07-08T05:55:54;100665.38;;;16.79;83.59
59877;BME280;45749;51.140;17.184;2023-07-08T05:58:20;100667.59;;;16.83;83.88
59877;BME280;45749;51.140;17.184;2023-07-08T06:00:45;100673.91;;;16.92;83.88
59877;BME280;45749;51.140;17.184;2023-07-08T06:03:10;100668.97;;;16.97;84.46
59877;BME280;45749;51.140;17.184;2023-07-08T06:05:37;100671.78;;;17.05;84.28
59877;BME280;45749;51.140;17.184;2023-07-08T06:08:02;100663.63;;;17.07;84.27
59877;BME280;45749;51.140;17.184;2023-07-08T06:10:28;100671.31;;;17.20;83.91
59877;BME280;45749;51.140;17.184;2023-07-08T06:12:53;100665.53;;;17.24;84.00
59877;BME280;45749;51.140;17.184;2023-07-08T06:15:19;100664.50;;;17.35;83.56
59877;BME280;45749;51.140;17.184;2023-07-08T06:17:44;100662.19;;;17.50;83.62
59877;BME280;45749;51.140;17.184;2023-07-08T06:20:09;100655.41;;;17.55;83.66
59877;BME280;45749;51.140;17.184;2023-07-08T06:22:35;100654.53;;;17.65;83.87
59877;BME280;45749;51.140;17.184;2023-07-08T06:25:00;100661.22;;;17.78;84.03
59877;BME280;45749;51.140;17.184;2023-07-08T06:27:25;100659.50;;;17.87;82.48
59877;BME280;45749;51.140;17.184;2023-07-08T06:29:51;100667.28;;;17.98;82.62
59877;BME280;45749;51.140;17.184;2023-07-08T06:32:16;100645.78;;;18.00;81.97
59877;BME280;45749;51.140;17.184;2023-07-08T06:34:41;100649.88;;;18.12;81.22
59877;BME280;45749;51.140;17.184;2023-07-08T06:37:07;100654.72;;;18.26;80.97
59877;BME280;45749;51.140;17.184;2023-07-08T06:39:32;100653.94;;;18.34;79.61
59877;BME280;45749;51.140;17.184;2023-07-08T06:41:57;100657.13;;;18.38;79.68
59877;BME280;45749;51.140;17.184;2023-07-08T06:44:23;100648.81;;;18.41;79.78
59877;BME280;45749;51.140;17.184;2023-07-08T06:46:48;100655.81;;;18.60;79.26
59877;BME280;45749;51.140;17.184;2023-07-08T06:49:13;100666.25;;;18.71;79.23
59877;BME280;45749;51.140;17.184;2023-07-08T06:51:38;100667.72;;;18.83;79.26
59877;BME280;45749;51.140;17.184;2023-07-08T06:54:04;100656.22;;;18.91;79.22
59877;BME280;45749;51.140;17.184;2023-07-08T06:56:37;100661.84;;;19.06;79.77
59877;BME280;45749;51.140;17.184;2023-07-08T06:59:03;100665.56;;;19.13;79.65
59877;BME280;45749;51.140;17.184;2023-07-08T07:01:28;100670.94;;;19.21;79.36
59877;BME280;45749;51.140;17.184;2023-07-08T07:03:53;100656.41;;;19.24;79.70
59877;BME280;45749;51.140;17.184;2023-07-08T07:06:19;100665.53;;;19.39;79.84
59877;BME280;45749;51.140;17.184;2023-07-08T07:08:44;100672.44;;;19.50;78.67
59877;BME280;45749;51.140;17.184;2023-07-08T07:11:09;100672.81;;;19.63;77.90
59877;BME280;45749;51.140;17.184;2023-07-08T07:13:34;100659.16;;;19.74;77.79
59877;BME280;45749;51.140;17.184;2023-07-08T07:16:00;100662.03;;;19.89;78.08
59877;BME280;45749;51.140;17.184;2023-07-08T07:18:25;100668.94;;;20.00;77.94
59877;BME280;45749;51.140;17.184;2023-07-08T07:20:53;100663.28;;;20.11;77.43
59877;BME280;45749;51.140;17.184;2023-07-08T07:23:19;100673.84;;;20.29;77.64
59877;BME280;45749;51.140;17.184;2023-07-08T07:25:48;100673.84;;;20.45;75.23
59877;BME280;45749;51.140;17.184;2023-07-08T07:28:14;100670.50;;;20.59;74.31
59877;BME280;45749;51.140;17.184;2023-07-08T07:30:42;100668.69;;;20.76;74.54
59877;BME280;45749;51.140;17.184;2023-07-08T07:33:07;100671.16;;;20.94;73.33
59877;BME280;45749;51.140;17.184;2023-07-08T07:35:32;100680.19;;;21.10;73.30
59877;BME280;45749;51.140;17.184;2023-07-08T07:37:58;100666.06;;;21.24;72.75
59877;BME280;45749;51.140;17.184;2023-07-08T07:40:23;100665.53;;;21.28;72.28
59877;BME280;45749;51.140;17.184;2023-07-08T07:42:48;100656.16;;;21.33;72.19
59877;BME280;45749;51.140;17.184;2023-07-08T07:45:15;100662.31;;;21.49;71.98
59877;BME280;45749;51.140;17.184;2023-07-08T07:47:41;100672.94;;;21.74;71.59
59877;BME280;45749;51.140;17.184;2023-07-08T07:50:07;100671.47;;;21.94;70.27
59877;BME280;45749;51.140;17.184;2023-07-08T07:52:33;100679.44;;;22.11;69.73
59877;BME280;45749;51.140;17.184;2023-07-08T07:54:59;100680.72;;;22.23;68.58
59877;BME280;45749;51.140;17.184;2023-07-08T07:57:25;100672.91;;;22.36;68.39
59877;BME280;45749;51.140;17.184;2023-07-08T07:59:50;100680.16;;;22.51;66.40
59877;BME280;45749;51.140;17.184;2023-07-08T08:02:16;100679.75;;;22.62;65.78
59877;BME280;45749;51.140;17.184;2023-07-08T08:04:41;100673.75;;;22.75;65.15
59877;BME280;45749;51.140;17.184;2023-07-08T08:07:07;100667.19;;;22.92;65.52
59877;BME280;45749;51.140;17.184;2023-07-08T08:09:32;100670.59;;;23.09;63.57
59877;BME280;45749;51.140;17.184;2023-07-08T08:11:57;100669.13;;;23.21;63.17
59877;BME280;45749;51.140;17.184;2023-07-08T08:14:23;100667.63;;;23.33;61.97
59877;BME280;45749;51.140;17.184;2023-07-08T08:16:48;100668.63;;;23.47;60.23
59877;BME280;45749;51.140;17.184;2023-07-08T08:19:14;100666.03;;;23.54;60.37
59877;BME280;45749;51.140;17.184;2023-07-08T08:21:39;100666.88;;;23.69;60.86
59877;BME280;45749;51.140;17.184;2023-07-08T08:24:05;100671.78;;;23.80;59.09
59877;BME280;45749;51.140;17.184;2023-07-08T08:26:30;100668.56;;;23.92;58.67
59877;BME280;45749;51.140;17.184;2023-07-08T08:28:56;100669.97;;;24.02;58.34
59877;BME280;45749;51.140;17.184;2023-07-08T08:31:21;100665.72;;;24.15;58.50
59877;BME280;45749;51.140;17.184;2023-07-08T08:33:47;100655.81;;;24.22;57.71
59877;BME280;45749;51.140;17.184;2023-07-08T08:36:12;100662.13;;;24.29;58.18
59877;BME280;45749;51.140;17.184;2023-07-08T08:38:37;100663.13;;;24.43;57.83
59877;BME280;45749;51.140;17.184;2023-07-08T08:41:04;100665.72;;;24.57;55.70
59877;BME280;45749;51.140;17.184;2023-07-08T08:43:36;100662.69;;;24.67;55.56
59877;BME280;45749;51.140;17.184;2023-07-08T08:46:29;100669.66;;;24.83;54.32
59877;BME280;45749;51.140;17.184;2023-07-08T08:49:13;100656.47;;;24.95;52.94
59877;BME280;45749;51.140;17.184;2023-07-08T08:51:41;100652.78;;;25.02;54.19
59877;BME280;45749;51.140;17.184;2023-07-08T08:54:07;100660.81;;;25.17;51.97
59877;BME280;45749;51.140;17.184;2023-07-08T08:56:43;100664.41;;;25.31;51.12
59877;BME280;45749;51.140;17.184;2023-07-08T09:01:55;100658.91;;;25.59;51.22
59877;BME280;45749;51.140;17.184;2023-07-08T09:04:27;100653.34;;;25.67;49.75
59877;BME280;45749;51.140;17.184;2023-07-08T09:07:02;100645.84;;;25.69;50.86
59877;BME280;45749;51.140;17.184;2023-07-08T09:09:32;100662.34;;;25.81;49.30
59877;BME280;45749;51.140;17.184;2023-07-08T09:12:04;100649.91;;;25.87;49.85
59877;BME280;45749;51.140;17.184;2023-07-08T09:14:33;100642.41;;;25.89;48.01
59877;BME280;45749;51.140;17.184;2023-07-08T09:17:20;100649.13;;;26.06;46.93
59877;BME280;45749;51.140;17.184;2023-07-08T09:19:52;100651.22;;;26.17;48.51
59877;BME280;45749;51.140;17.184;2023-07-08T09:22:28;100646.63;;;26.18;47.68
59877;BME280;45749;51.140;17.184;2023-07-08T09:27:40;100629.34;;;26.19;48.27
59877;BME280;45749;51.140;17.184;2023-07-08T09:30:10;100628.75;;;26.24;47.99
59877;BME280;45749;51.140;17.184;2023-07-08T09:32:38;100640.63;;;26.36;45.99
59877;BME280;45749;51.140;17.184;2023-07-08T09:35:05;100636.50;;;26.53;45.05
59877;BME280;45749;51.140;17.184;2023-07-08T09:37:36;100645.84;;;26.71;45.98
59877;BME280;45749;51.140;17.184;2023-07-08T09:43:02;100631.66;;;26.95;44.41
59877;BME280;45749;51.140;17.184;2023-07-08T09:45:28;100631.47;;;26.90;42.86
59877;BME280;45749;51.140;17.184;2023-07-08T09:47:56;100631.88;;;26.87;43.34
59877;BME280;45749;51.140;17.184;2023-07-08T09:50:25;100625.81;;;26.98;42.75
59877;BME280;45749;51.140;17.184;2023-07-08T09:52:55;100619.75;;;27.03;43.83
59877;BME280;45749;51.140;17.184;2023-07-08T09:55:22;100616.63;;;27.06;43.89
59877;BME280;45749;51.140;17.184;2023-07-08T09:57:50;100610.38;;;27.05;44.79
59877;BME280;45749;51.140;17.184;2023-07-08T10:00:19;100618.91;;;27.09;43.82
59877;BME280;45749;51.140;17.184;2023-07-08T10:02:49;100617.69;;;27.18;44.19
59877;BME280;45749;51.140;17.184;2023-07-08T10:05:33;100611.16;;;27.32;41.80
59877;BME280;45749;51.140;17.184;2023-07-08T10:08:00;100609.06;;;27.41;43.36
59877;BME280;45749;51.140;17.184;2023-07-08T10:10:31;100609.59;;;27.56;41.83
59877;BME280;45749;51.140;17.184;2023-07-08T10:13:01;100616.78;;;27.76;41.92
59877;BME280;45749;51.140;17.184;2023-07-08T10:15:33;100612.97;;;27.90;41.70
59877;BME280;45749;51.140;17.184;2023-07-08T10:18:01;100615.59;;;28.03;42.12
59877;BME280;45749;51.140;17.184;2023-07-08T10:20:35;100608.47;;;28.09;42.63
59877;BME280;45749;51.140;17.184;2023-07-08T10:23:27;100609.41;;;28.21;41.28
59877;BME280;45749;51.140;17.184;2023-07-08T10:28:44;100606.22;;;28.31;39.69
59877;BME280;45749;51.140;17.184;2023-07-08T10:31:52;100600.78;;;28.31;39.87
59877;BME280;45749;51.140;17.184;2023-07-08T10:34:46;100603.25;;;28.39;39.34
59877;BME280;45749;51.140;17.184;2023-07-08T10:37:25;100586.53;;;28.36;40.37
59877;BME280;45749;51.140;17.184;2023-07-08T10:40:13;100583.75;;;28.49;39.29
59877;BME280;45749;51.140;17.184;2023-07-08T10:42:53;100603.00;;;28.66;38.87
59877;BME280;45749;51.140;17.184;2023-07-08T10:45:44;100599.41;;;28.72;37.88
59877;BME280;45749;51.140;17.184;2023-07-08T10:57:32;100599.34;;;28.97;39.12
59877;BME280;45749;51.140;17.184;2023-07-08T11:00:19;100594.31;;;29.01;38.82
59877;BME280;45749;51.140;17.184;2023-07-08T11:05:33;100583.06;;;29.15;37.18
59877;BME280;45749;51.140;17.184;2023-07-08T11:08:11;100579.69;;;29.20;36.73
59877;BME280;45749;51.140;17.184;2023-07-08T11:11:03;100577.00;;;29.32;36.58
59877;BME280;45749;51.140;17.184;2023-07-08T11:13:35;100582.13;;;29.40;36.28
59877;BME280;45749;51.140;17.184;2023-07-08T11:16:10;100585.59;;;29.47;37.21
59877;BME280;45749;51.140;17.184;2023-07-08T11:18:43;100586.69;;;29.58;36.37
59877;BME280;45749;51.140;17.184;2023-07-08T11:21:16;100568.91;;;29.62;35.86
59877;BME280;45749;51.140;17.184;2023-07-08T11:23:50;100576.97;;;29.68;34.59
59877;BME280;45749;51.140;17.184;2023-07-08T11:28:43;100573.41;;;29.68;35.02
59877;BME280;45749;51.140;17.184;2023-07-08T11:31:10;100569.88;;;29.67;35.00
59877;BME280;45749;51.140;17.184;2023-07-08T11:33:35;100571.09;;;29.72;34.72
59877;BME280;45749;51.140;17.184;2023-07-08T11:36:03;100570.97;;;29.78;34.76
59877;BME280;45749;51.140;17.184;2023-07-08T11:38:32;100572.75;;;29.84;33.74
59877;BME280;45749;51.140;17.184;2023-07-08T11:41:03;100569.44;;;29.82;33.38
59877;BME280;45749;51.140;17.184;2023-07-08T11:43:42;100563.66;;;29.79;33.88
59877;BME280;45749;51.140;17.184;2023-07-08T11:46:14;100576.22;;;29.91;33.72
59877;BME280;45749;51.140;17.184;2023-07-08T11:48:45;100576.22;;;29.91;33.24
59877;BME280;45749;51.140;17.184;2023-07-08T11:51:17;100566.03;;;29.87;33.85
59877;BME280;45749;51.140;17.184;2023-07-08T11:53:49;100559.28;;;29.89;35.19
59877;BME280;45749;51.140;17.184;2023-07-08T12:01:37;100545.47;;;30.03;32.98
59877;BME280;45749;51.140;17.184;2023-07-08T12:09:35;100544.91;;;30.12;34.26
59877;BME280;45749;51.140;17.184;2023-07-08T12:12:05;100530.47;;;30.12;33.22
59877;BME280;45749;51.140;17.184;2023-07-08T12:14:31;100545.78;;;30.25;33.51
59877;BME280;45749;51.140;17.184;2023-07-08T12:16:57;100545.06;;;30.29;32.36
59877;BME280;45749;51.140;17.184;2023-07-08T12:19:25;100536.53;;;30.26;33.40
59877;BME280;45749;51.140;17.184;2023-07-08T12:21:53;100533.00;;;30.25;33.03
59877;BME280;45749;51.140;17.184;2023-07-08T12:24:18;100533.09;;;30.30;32.96
59877;BME280;45749;51.140;17.184;2023-07-08T12:26:50;100539.84;;;30.40;33.23
59877;BME280;45749;51.140;17.184;2023-07-08T12:29:15;100538.56;;;30.42;32.68
59877;BME280;45749;51.140;17.184;2023-07-08T12:31:42;100544.25;;;30.41;32.97
59877;BME280;45749;51.140;17.184;2023-07-08T12:34:12;100545.06;;;30.41;32.41
59877;BME280;45749;51.140;17.184;2023-07-08T12:36:39;100533.69;;;30.32;32.82
59877;BME280;45749;51.140;17.184;2023-07-08T12:39:05;100530.25;;;30.37;32.83
59877;BME280;45749;51.140;17.184;2023-07-08T12:41:33;100535.47;;;30.38;31.58
59877;BME280;45749;51.140;17.184;2023-07-08T12:44:01;100535.47;;;30.38;33.37
59877;BME280;45749;51.140;17.184;2023-07-08T12:46:26;100529.56;;;30.42;32.52
59877;BME280;45749;51.140;17.184;2023-07-08T12:48:52;100519.16;;;30.38;32.26
59877;BME280;45749;51.140;17.184;2023-07-08T12:51:23;100522.22;;;30.42;31.90
59877;BME280;45749;51.140;17.184;2023-07-08T12:53:50;100528.84;;;30.46;32.78
59877;BME280;45749;51.140;17.184;2023-07-08T12:56:17;100526.72;;;30.48;32.17
59877;BME280;45749;51.140;17.184;2023-07-08T12:58:46;100524.09;;;30.53;32.08
59877;BME280;45749;51.140;17.184;2023-07-08T13:01:19;100527.19;;;30.57;32.17
59877;BME280;45749;51.140;17.184;2023-07-08T13:03:48;100523.50;;;30.63;33.26
59877;BME280;45749;51.140;17.184;2023-07-08T13:06:17;100517.00;;;30.64;31.41
59877;BME280;45749;51.140;17.184;2023-07-08T13:08:43;100501.72;;;30.63;32.32
59877;BME280;45749;51.140;17.184;2023-07-08T13:11:13;100513.06;;;30.72;32.62
59877;BME280;45749;51.140;17.184;2023-07-08T13:13:48;100513.41;;;30.75;32.03
59877;BME280;45749;51.140;17.184;2023-07-08T13:16:15;100497.91;;;30.76;32.79
59877;BME280;45749;51.140;17.184;2023-07-08T13:18:41;100501.81;;;30.80;32.45
59877;BME280;45749;51.140;17.184;2023-07-08T13:21:13;100502.06;;;30.78;32.39
59877;BME280;45749;51.140;17.184;2023-07-08T13:23:39;100494.72;;;30.79;32.40